Observation data for Brownfield on 01/12/2018      Previous  Date  Next       Current Mesonet Observations  Soil Data  Daily Summary Page  Observations in Plain Language
KBWS 120600Z 07001KT 00/M11 A3028 RMK A01 T00011114  RH  042%=      5-min Rain = 0
KBWS 120605Z 07002KT M00/M11 A3029 RMK A01 T10031113  RH  044%=      5-min Rain = 0
KBWS 120610Z 07002KT M00/M11 A3028 RMK A01 T10031109  RH  045%=      5-min Rain = 0
KBWS 120615Z 07001KT M01/M11 A3028 RMK A01 T10051111  RH  045%=      5-min Rain = 0
KBWS 120620Z 07001KT M01/M11 A3028 RMK A01 T10061113  RH  045%=      5-min Rain = 0
KBWS 120625Z 08002KT M01/M11 A3028 RMK A01 T10061113  RH  045%=      5-min Rain = 0
KBWS 120630Z 08002KT M01/M11 A3028 RMK A01 T10061112  RH  045%=      5-min Rain = 0
KBWS 120635Z 07002KT M01/M11 A3028 RMK A01 T10091114  RH  045%=      5-min Rain = 0
KBWS 120640Z 08002KT M01/M11 A3027 RMK A01 T10111112  RH  047%=      5-min Rain = 0
KBWS 120645Z 08003KT M01/M11 A3027 RMK A01 T10081110  RH  046%=      5-min Rain = 0
KBWS 120650Z 08002KT M01/M11 A3027 RMK A01 T10071110  RH  046%=      5-min Rain = 0
KBWS 120655Z 08001KT M01/M11 A3027 RMK A01 T10091112  RH  046%=      5-min Rain = 0
KBWS 120700Z 10001KT M01/M11 A3027 RMK A01 T10121112  RH  047%=      5-min Rain = 0
KBWS 120705Z 13001KT M02/M12 A3027 RMK A01 T10161115  RH  047%=      5-min Rain = 0
KBWS 120710Z 17002KT M02/M11 A3026 RMK A01 T10221108  RH  052%=      5-min Rain = 0
KBWS 120715Z 19003KT M03/M11 A3026 RMK A01 T10301111  RH  054%=      5-min Rain = 0
KBWS 120720Z 20003KT M04/M12 A3026 RMK A01 T10411117  RH  056%=      5-min Rain = 0
KBWS 120725Z 21003KT M04/M12 A3026 RMK A01 T10431115  RH  058%=      5-min Rain = 0
KBWS 120730Z 21003KT M04/M13 A3026 RMK A01 T10411126  RH  053%=      5-min Rain = 0
KBWS 120735Z 22003KT M05/M14 A3026 RMK A01 T10461136  RH  050%=      5-min Rain = 0
KBWS 120740Z 22002KT M05/M13 A3026 RMK A01 T10491133  RH  053%=      5-min Rain = 0
KBWS 120745Z 22002KT M05/M13 A3026 RMK A01 T10471130  RH  053%=      5-min Rain = 0
KBWS 120750Z 21002KT M04/M13 A3026 RMK A01 T10441130  RH  052%=      5-min Rain = 0
KBWS 120755Z 23002KT M05/M13 A3026 RMK A01 T10451130  RH  052%=      5-min Rain = 0
KBWS 120800Z 23003KT M04/M13 A3027 RMK A01 T10381125  RH  052%=      5-min Rain = 0
KBWS 120805Z 23004KT M04/M13 A3027 RMK A01 T10401125  RH  052%=      5-min Rain = 0
KBWS 120810Z 24004KT M04/M12 A3027 RMK A01 T10361122  RH  052%=      5-min Rain = 0
KBWS 120815Z 24004KT M04/M13 A3027 RMK A01 T10401126  RH  052%=      5-min Rain = 0
KBWS 120820Z 25003KT M04/M13 A3027 RMK A01 T10421132  RH  050%=      5-min Rain = 0
KBWS 120825Z 25003KT M05/M13 A3027 RMK A01 T10451134  RH  051%=      5-min Rain = 0
KBWS 120830Z 26004KT M05/M13 A3027 RMK A01 T10461134  RH  051%=      5-min Rain = 0
KBWS 120835Z 25004KT M05/M13 A3027 RMK A01 T10451134  RH  051%=      5-min Rain = 0
KBWS 120840Z 25003KT M04/M14 A3026 RMK A01 T10441135  RH  050%=      5-min Rain = 0
KBWS 120845Z 25004KT M05/M14 A3026 RMK A01 T10451135  RH  050%=      5-min Rain = 0
KBWS 120850Z 25004KT M05/M14 A3026 RMK A01 T10461135  RH  051%=      5-min Rain = 0
KBWS 120855Z 25005KT M05/M14 A3026 RMK A01 T10461135  RH  051%=      5-min Rain = 0
KBWS 120900Z 26005KT M05/M14 A3027 RMK A01 T10451135  RH  050%=      5-min Rain = 0
KBWS 120905Z 26004KT M04/M13 A3026 RMK A01 T10431134  RH  050%=      5-min Rain = 0
KBWS 120910Z 26004KT M04/M13 A3026 RMK A01 T10421134  RH  049%=      5-min Rain = 0
KBWS 120915Z 26004KT M04/M13 A3026 RMK A01 T10431134  RH  050%=      5-min Rain = 0
KBWS 120920Z 25005KT M04/M13 A3025 RMK A01 T10391132  RH  049%=      5-min Rain = 0
KBWS 120925Z 24006KT M04/M13 A3025 RMK A01 T10391130  RH  050%=      5-min Rain = 0
KBWS 120930Z 24006KT M04/M13 A3025 RMK A01 T10391129  RH  050%=      5-min Rain = 0
KBWS 120935Z 24006KT M04/M13 A3024 RMK A01 T10421130  RH  051%=      5-min Rain = 0
KBWS 120940Z 24005KT M04/M13 A3024 RMK A01 T10441128  RH  053%=      5-min Rain = 0
KBWS 120945Z 24005KT M05/M13 A3024 RMK A01 T10461129  RH  053%=      5-min Rain = 0
KBWS 120950Z 24005KT M05/M13 A3024 RMK A01 T10481130  RH  053%=      5-min Rain = 0
KBWS 120955Z 24005KT M04/M13 A3024 RMK A01 T10431125  RH  053%=      5-min Rain = 0
KBWS 121000Z 24005KT M04/M13 A3024 RMK A01 T10401125  RH  052%=      5-min Rain = 0
KBWS 121005Z 22004KT M04/M13 A3023 RMK A01 T10401126  RH  052%=      5-min Rain = 0
KBWS 121010Z 23004KT M04/M13 A3023 RMK A01 T10411126  RH  052%=      5-min Rain = 0
KBWS 121015Z 23005KT M04/M13 A3024 RMK A01 T10391126  RH  052%=      5-min Rain = 0
KBWS 121020Z 23005KT M04/M13 A3023 RMK A01 T10371125  RH  051%=      5-min Rain = 0
KBWS 121025Z 23005KT M04/M13 A3023 RMK A01 T10411128  RH  051%=      5-min Rain = 0
KBWS 121030Z 23006KT M04/M13 A3023 RMK A01 T10421127  RH  053%=      5-min Rain = 0
KBWS 121035Z 24006KT M04/M13 A3023 RMK A01 T10431126  RH  053%=      5-min Rain = 0
KBWS 121040Z 24006KT M04/M12 A3023 RMK A01 T10401124  RH  053%=      5-min Rain = 0
KBWS 121045Z 23006KT M04/M13 A3023 RMK A01 T10391125  RH  052%=      5-min Rain = 0
KBWS 121050Z 22006KT M04/M13 A3023 RMK A01 T10421126  RH  053%=      5-min Rain = 0
KBWS 121055Z 23005KT M04/M13 A3023 RMK A01 T10441125  RH  054%=      5-min Rain = 0
KBWS 121100Z 23005KT M04/M13 A3023 RMK A01 T10431125  RH  054%=      5-min Rain = 0
KBWS 121105Z 22005KT M04/M12 A3022 RMK A01 T10381124  RH  052%=      5-min Rain = 0
KBWS 121110Z 23004KT M04/M13 A3022 RMK A01 T10381125  RH  052%=      5-min Rain = 0
KBWS 121115Z 23004KT M05/M13 A3023 RMK A01 T10451129  RH  053%=      5-min Rain = 0
KBWS 121120Z 24004KT M05/M13 A3023 RMK A01 T10471130  RH  053%=      5-min Rain = 0
KBWS 121125Z 24004KT M05/M13 A3023 RMK A01 T10481130  RH  053%=      5-min Rain = 0
KBWS 121130Z 23005KT M05/M13 A3023 RMK A01 T10451126  RH  054%=      5-min Rain = 0
KBWS 121135Z 22006KT M04/M12 A3023 RMK A01 T10351121  RH  052%=      5-min Rain = 0
KBWS 121140Z 22006KT M03/M12 A3023 RMK A01 T10341121  RH  052%=      5-min Rain = 0
KBWS 121145Z 22006KT M04/M12 A3023 RMK A01 T10371121  RH  053%=      5-min Rain = 0
KBWS 121150Z 22006KT M04/M12 A3023 RMK A01 T10381119  RH  054%=      5-min Rain = 0
KBWS 121155Z 22007KT M04/M12 A3023 RMK A01 T10371120  RH  053%=      5-min Rain = 0
KBWS 121200Z 22007KT M04/M12 A3023 RMK A01 T10371123  RH  052%=      5-min Rain = 0
KBWS 121205Z 22007KT M04/M12 A3022 RMK A01 T10371123  RH  052%=      5-min Rain = 0
KBWS 121210Z 22007KT M04/M12 A3022 RMK A01 T10361122  RH  052%=      5-min Rain = 0
KBWS 121215Z 21008KT M04/M12 A3022 RMK A01 T10351123  RH  051%=      5-min Rain = 0
KBWS 121220Z 21008KT M04/M13 A3022 RMK A01 T10371125  RH  051%=      5-min Rain = 0
KBWS 121225Z 21008KT M04/M12 A3022 RMK A01 T10371124  RH  051%=      5-min Rain = 0
KBWS 121230Z 20008KT M04/M13 A3022 RMK A01 T10401126  RH  052%=      5-min Rain = 0
KBWS 121235Z 19008KT M04/M12 A3023 RMK A01 T10391124  RH  053%=      5-min Rain = 0
KBWS 121240Z 19008KT M04/M12 A3023 RMK A01 T10391124  RH  052%=      5-min Rain = 0
KBWS 121245Z 19008KT M04/M12 A3023 RMK A01 T10381124  RH  052%=      5-min Rain = 0
KBWS 121250Z 18007KT M04/M13 A3023 RMK A01 T10391125  RH  052%=      5-min Rain = 0
KBWS 121255Z 14006KT M05/M13 A3024 RMK A01 T10501126  RH  056%=      5-min Rain = 0
KBWS 121300Z 14006KT M06/M13 A3024 RMK A01 T10621132  RH  059%=      5-min Rain = 0
KBWS 121305Z 14006KT M07/M13 A3024 RMK A01 T10661134  RH  060%=      5-min Rain = 0
KBWS 121310Z 14007KT M07/M14 A3024 RMK A01 T10681135  RH  060%=      5-min Rain = 0
KBWS 121315Z 15008KT M07/M13 A3024 RMK A01 T10681134  RH  060%=      5-min Rain = 0
KBWS 121320Z 15008KT M06/M13 A3024 RMK A01 T10641130  RH  060%=      5-min Rain = 0
KBWS 121325Z 15007KT M06/M13 A3024 RMK A01 T10591127  RH  059%=      5-min Rain = 0
KBWS 121330Z 15006KT M06/M13 A3025 RMK A01 T10591127  RH  059%=      5-min Rain = 0
KBWS 121335Z 16007KT M06/M13 A3025 RMK A01 T10601129  RH  059%=      5-min Rain = 0
KBWS 121340Z 16009KT M06/M13 A3024 RMK A01 T10601128  RH  059%=      5-min Rain = 0
KBWS 121345Z 17007KT M06/M13 A3025 RMK A01 T10591127  RH  060%=      5-min Rain = 0
KBWS 121350Z 17006KT M06/M13 A3025 RMK A01 T10591126  RH  060%=      5-min Rain = 0
KBWS 121355Z 17006KT M06/M13 A3025 RMK A01 T10591127  RH  060%=      5-min Rain = 0
KBWS 121400Z 18006KT M06/M13 A3025 RMK A01 T10601128  RH  059%=      5-min Rain = 0
KBWS 121405Z 18007KT M06/M13 A3025 RMK A01 T10571125  RH  059%=      5-min Rain = 0
KBWS 121410Z 17007KT M05/M12 A3025 RMK A01 T10521122  RH  059%=      5-min Rain = 0
KBWS 121415Z 17007KT M05/M12 A3025 RMK A01 T10481121  RH  058%=      5-min Rain = 0
KBWS 121420Z 17009KT M04/M12 A3024 RMK A01 T10431118  RH  057%=      5-min Rain = 0
KBWS 121425Z 17009KT M04/M12 A3024 RMK A01 T10421117  RH  057%=      5-min Rain = 0
KBWS 121430Z 17009KT M04/M12 A3024 RMK A01 T10401115  RH  057%=      5-min Rain = 0
KBWS 121435Z 17008KT M04/M11 A3024 RMK A01 T10371112  RH  057%=      5-min Rain = 0
KBWS 121440Z 17010KT M03/M11 A3024 RMK A01 T10341111  RH  056%=      5-min Rain = 0
KBWS 121445Z 17010KT M03/M11 A3024 RMK A01 T10311109  RH  056%=      5-min Rain = 0
KBWS 121450Z 17011KT M03/M11 A3024 RMK A01 T10261106  RH  055%=      5-min Rain = 0
KBWS 121455Z 17011KT M02/M11 A3024 RMK A01 T10231105  RH  054%=      5-min Rain = 0
KBWS 121500Z 17011KT M02/M10 A3024 RMK A01 T10191103  RH  053%=      5-min Rain = 0
KBWS 121505Z 17011KT M02/M10 A3024 RMK A01 T10151102  RH  052%=      5-min Rain = 0
KBWS 121510Z 17012KT M01/M10 A3024 RMK A01 T10111101  RH  051%=      5-min Rain = 0
KBWS 121515Z 17012KT M01/M10 A3024 RMK A01 T10081102  RH  050%=      5-min Rain = 0
KBWS 121520Z 17012KT M01/M10 A3024 RMK A01 T10051101  RH  049%=      5-min Rain = 0
KBWS 121525Z 16011KT M00/M10 A3024 RMK A01 T10041101  RH  049%=      5-min Rain = 0
KBWS 121530Z 16011KT M00/M10 A3025 RMK A01 T10021101  RH  048%=      5-min Rain = 0
KBWS 121535Z 16012KT 00/10 A3025 RMK A01 T00000-101  RH  047%=      5-min Rain = 0
KBWS 121540Z 16012KT 00/M10 A3025 RMK A01 T00021101  RH  047%=      5-min Rain = 0
KBWS 121545Z 16012KT 00/M10 A3025 RMK A01 T00041101  RH  046%=      5-min Rain = 0
KBWS 121550Z 16011KT 01/M10 A3025 RMK A01 T00071099  RH  045%=      5-min Rain = 0
KBWS 121555Z 16013KT 01/M10 A3025 RMK A01 T00111098  RH  044%=      5-min Rain = 0
KBWS 121600Z 16012KT 02/M10 A3025 RMK A01 T00151099  RH  043%=      5-min Rain = 0
KBWS 121605Z 16012KT 02/M10 A3025 RMK A01 T00171098  RH  043%=      5-min Rain = 0
KBWS 121610Z 16012KT 02/M10 A3025 RMK A01 T00181099  RH  042%=      5-min Rain = 0
KBWS 121615Z 16012KT 02/M10 A3025 RMK A01 T00211099  RH  041%=      5-min Rain = 0
KBWS 121620Z 16012KT 03/M10 A3025 RMK A01 T00251098  RH  040%=      5-min Rain = 0
KBWS 121625Z 16012KT 03/M10 A3025 RMK A01 T00281098  RH  039%=      5-min Rain = 0
KBWS 121630Z 16012KT 03/M10 A3025 RMK A01 T00291098  RH  039%=      5-min Rain = 0
KBWS 121635Z 17013KT 03/M10 A3025 RMK A01 T00321099  RH  038%=      5-min Rain = 0
KBWS 121640Z 17012KT 03/M10 A3025 RMK A01 T00331100  RH  038%=      5-min Rain = 0
KBWS 121645Z 16013KT 04/M10 A3025 RMK A01 T00371099  RH  037%=      5-min Rain = 0
KBWS 121650Z 17012KT 04/M10 A3025 RMK A01 T00391101  RH  036%=      5-min Rain = 0
KBWS 121655Z 17012KT 04/M10 A3025 RMK A01 T00391102  RH  035%=      5-min Rain = 0
KBWS 121700Z 17012KT 04/M11 A3025 RMK A01 T00411106  RH  034%=      5-min Rain = 0
KBWS 121705Z 17013G18KT 05/M11 A3024 RMK A01 T00461105  RH  033%=      5-min Rain = 0
KBWS 121710Z 17013G18KT 05/M11 A3024 RMK A01 T00491110  RH  031%=      5-min Rain = 0
KBWS 121715Z 17012G17KT 06/M11 A3024 RMK A01 T00551109  RH  030%=      5-min Rain = 0
KBWS 121720Z 17014KT 05/M12 A3023 RMK A01 T00541117  RH  028%=      5-min Rain = 0
KBWS 121725Z 18014KT 05/M12 A3023 RMK A01 T00521118  RH  028%=      5-min Rain = 0
KBWS 121730Z 17014G19KT 05/M12 A3023 RMK A01 T00511117  RH  029%=      5-min Rain = 0
KBWS 121735Z 17014KT 05/M12 A3022 RMK A01 T00541119  RH  028%=      5-min Rain = 0
KBWS 121740Z 17014KT 05/M12 A3022 RMK A01 T00541119  RH  028%=      5-min Rain = 0
KBWS 121745Z 17014KT 05/M12 A3022 RMK A01 T00541116  RH  029%=      5-min Rain = 0
KBWS 121750Z 17014G19KT 06/M12 A3021 RMK A01 T00551117  RH  028%=      5-min Rain = 0
KBWS 121755Z 17015KT 06/M12 A3021 RMK A01 T00611116  RH  027%=      5-min Rain = 0
KBWS 121800Z 17014G19KT 06/M12 A3021 RMK A01 T00641116  RH  027%=      5-min Rain = 0
KBWS 121805Z 17014KT 07/M11 A3021 RMK A01 T00681114  RH  026%=      5-min Rain = 0
KBWS 121810Z 17014KT 06/M12 A302 RMK A01 T00621118  RH  026%=      5-min Rain = 0
KBWS 121815Z 18014G19KT 06/M12 A302 RMK A01 T00641115  RH  027%=      5-min Rain = 0
KBWS 121820Z 18014KT 07/M11 A302 RMK A01 T00701113  RH  026%=      5-min Rain = 0
KBWS 121825Z 18013KT 07/M11 A3019 RMK A01 T00671113  RH  027%=      5-min Rain = 0
KBWS 121830Z 18013KT 07/M11 A3019 RMK A01 T00691111  RH  027%=      5-min Rain = 0
KBWS 121835Z 19013KT 07/M11 A3018 RMK A01 T00661110  RH  028%=      5-min Rain = 0
KBWS 121840Z 18014KT 07/M11 A3017 RMK A01 T00711107  RH  027%=      5-min Rain = 0
KBWS 121845Z 18016KT 07/M11 A3016 RMK A01 T00741108  RH  027%=      5-min Rain = 0
KBWS 121850Z 18016KT 08/M11 A3015 RMK A01 T00751109  RH  026%=      5-min Rain = 0
KBWS 121855Z 18015KT 08/M11 A3015 RMK A01 T00781108  RH  026%=      5-min Rain = 0
KBWS 121900Z 17013G18KT 08/M11 A3015 RMK A01 T00791107  RH  026%=      5-min Rain = 0
KBWS 121905Z 18013G19KT 08/M11 A3015 RMK A01 T00831106  RH  025%=      5-min Rain = 0
KBWS 121910Z 18014KT 08/M11 A3015 RMK A01 T00811108  RH  025%=      5-min Rain = 0
KBWS 121915Z 18014G20KT 08/M11 A3014 RMK A01 T00841106  RH  025%=      5-min Rain = 0
KBWS 121920Z 17013G19KT 09/M11 A3014 RMK A01 T00851105  RH  025%=      5-min Rain = 0
KBWS 121925Z 17013KT 09/M11 A3014 RMK A01 T00851105  RH  025%=      5-min Rain = 0
KBWS 121930Z 17012KT 10/M10 A3014 RMK A01 T00951102  RH  024%=      5-min Rain = 0
KBWS 121935Z 18013G18KT 09/M11 A3014 RMK A01 T00911105  RH  024%=      5-min Rain = 0
KBWS 121940Z 18012G18KT 09/M11 A3014 RMK A01 T00881105  RH  025%=      5-min Rain = 0
KBWS 121945Z 18013G18KT 09/M10 A3013 RMK A01 T00941103  RH  024%=      5-min Rain = 0
KBWS 121950Z 17013G18KT 09/M10 A3013 RMK A01 T00931104  RH  024%=      5-min Rain = 0
KBWS 121955Z 18012KT 10/M10 A3013 RMK A01 T00951103  RH  024%=      5-min Rain = 0
KBWS 122000Z 18012G17KT 10/M10 A3013 RMK A01 T00981103  RH  024%=      5-min Rain = 0
KBWS 122005Z 18013G18KT 10/M10 A3012 RMK A01 T00981102  RH  024%=      5-min Rain = 0
KBWS 122010Z 17013KT 10/M10 A3012 RMK A01 T00991102  RH  023%=      5-min Rain = 0
KBWS 122015Z 18013KT 10/M10 A3012 RMK A01 T01001101  RH  023%=      5-min Rain = 0
KBWS 122020Z 17015G20KT 10/M10 A3011 RMK A01 T01001100  RH  024%=      5-min Rain = 0
KBWS 122025Z 17014KT 10/M10 A3011 RMK A01 T01021099  RH  023%=      5-min Rain = 0
KBWS 122030Z 16013G18KT 11/M10 A3011 RMK A01 T01051098  RH  023%=      5-min Rain = 0
KBWS 122035Z 18013KT 11/M10 A3011 RMK A01 T01091098  RH  023%=      5-min Rain = 0
KBWS 122040Z 18012KT 11/M10 A3011 RMK A01 T01101098  RH  022%=      5-min Rain = 0
KBWS 122045Z 19012KT 11/M10 A3011 RMK A01 T01121097  RH  022%=      5-min Rain = 0
KBWS 122050Z 18013KT 11/M10 A3011 RMK A01 T01111098  RH  022%=      5-min Rain = 0
KBWS 122055Z 17013KT 11/M10 A3011 RMK A01 T01081099  RH  023%=      5-min Rain = 0
KBWS 122100Z 18010G17KT 11/M10 A3011 RMK A01 T01101097  RH  023%=      5-min Rain = 0
KBWS 122105Z 17012KT 11/M10 A3011 RMK A01 T01121096  RH  022%=      5-min Rain = 0
KBWS 122110Z 16012KT 11/M10 A3011 RMK A01 T01121096  RH  023%=      5-min Rain = 0
KBWS 122115Z 16013KT 11/M10 A3011 RMK A01 T01131095  RH  023%=      5-min Rain = 0
KBWS 122120Z 16013KT 12/M09 A301 RMK A01 T01151094  RH  022%=      5-min Rain = 0
KBWS 122125Z 16011KT 12/M09 A3011 RMK A01 T01171094  RH  022%=      5-min Rain = 0
KBWS 122130Z 16011KT 11/M10 A301 RMK A01 T01131095  RH  023%=      5-min Rain = 0
KBWS 122135Z 15012KT 11/M09 A301 RMK A01 T01141094  RH  023%=      5-min Rain = 0
KBWS 122140Z 16013KT 12/M09 A301 RMK A01 T01161092  RH  023%=      5-min Rain = 0
KBWS 122145Z 16012KT 12/M09 A301 RMK A01 T01181091  RH  023%=      5-min Rain = 0
KBWS 122150Z 16013KT 12/M09 A301 RMK A01 T01151093  RH  023%=      5-min Rain = 0
KBWS 122155Z 15012KT 12/M09 A301 RMK A01 T01161092  RH  023%=      5-min Rain = 0
KBWS 122200Z 15013KT 12/M09 A301 RMK A01 T01151092  RH  023%=      5-min Rain = 0
KBWS 122205Z 16012KT 12/M09 A301 RMK A01 T01171091  RH  023%=      5-min Rain = 0
KBWS 122210Z 15013KT 12/M09 A301 RMK A01 T01151092  RH  023%=      5-min Rain = 0
KBWS 122215Z 15012KT 12/M09 A301 RMK A01 T01161091  RH  023%=      5-min Rain = 0
KBWS 122220Z 15012KT 12/M09 A301 RMK A01 T01161091  RH  023%=      5-min Rain = 0
KBWS 122225Z 15012KT 12/M09 A301 RMK A01 T01161091  RH  023%=      5-min Rain = 0
KBWS 122230Z 15012KT 12/M09 A301 RMK A01 T01161091  RH  023%=      5-min Rain = 0
KBWS 122235Z 14013G18KT 12/M09 A301 RMK A01 T01151091  RH  023%=      5-min Rain = 0
KBWS 122240Z 15013KT 11/M09 A301 RMK A01 T01141091  RH  023%=      5-min Rain = 0
KBWS 122245Z 14014KT 11/M09 A3009 RMK A01 T01131091  RH  023%=      5-min Rain = 0
KBWS 122250Z 14013KT 11/M09 A301 RMK A01 T01121091  RH  023%=      5-min Rain = 0
KBWS 122255Z 15013KT 11/M09 A301 RMK A01 T01111090  RH  024%=      5-min Rain = 0
KBWS 122300Z 14012KT 11/M09 A301 RMK A01 T01101090  RH  024%=      5-min Rain = 0
KBWS 122305Z 14012KT 11/M09 A3011 RMK A01 T01071090  RH  024%=      5-min Rain = 0
KBWS 122310Z 14011KT 11/M09 A3011 RMK A01 T01051091  RH  025%=      5-min Rain = 0
KBWS 122315Z 14012KT 10/M09 A3011 RMK A01 T01041090  RH  025%=      5-min Rain = 0
KBWS 122320Z 14012KT 10/M09 A3011 RMK A01 T01021089  RH  025%=      5-min Rain = 0
KBWS 122325Z 14011KT 10/M09 A3011 RMK A01 T01021091  RH  025%=      5-min Rain = 0
KBWS 122330Z 14012KT 10/M09 A3011 RMK A01 T00991090  RH  026%=      5-min Rain = 0
KBWS 122335Z 14011KT 10/M09 A3011 RMK A01 T00951091  RH  026%=      5-min Rain = 0
KBWS 122340Z 14010KT 09/M09 A3012 RMK A01 T00901092  RH  027%=      5-min Rain = 0
KBWS 122345Z 14009KT 09/M09 A3012 RMK A01 T00871089  RH  028%=      5-min Rain = 0
KBWS 122350Z 14010KT 09/M09 A3012 RMK A01 T00861088  RH  029%=      5-min Rain = 0
KBWS 122355Z 14010KT 08/M09 A3012 RMK A01 T00831087  RH  029%=      5-min Rain = 0
KBWS 130000Z 13010KT 08/M09 A3012 RMK A01 T00791087  RH  030%=      5-min Rain = 0
KBWS 130005Z 14010KT 08/M09 A3012 RMK A01 T00761090  RH  030%=      5-min Rain = 0
KBWS 130010Z 14010KT 07/M09 A3012 RMK A01 T00741092  RH  030%=      5-min Rain = 0
KBWS 130015Z 13010KT 07/M09 A3013 RMK A01 T00701090  RH  031%=      5-min Rain = 0
KBWS 130020Z 14009KT 07/M09 A3013 RMK A01 T00671092  RH  032%=      5-min Rain = 0
KBWS 130025Z 13009KT 06/M09 A3013 RMK A01 T00641091  RH  032%=      5-min Rain = 0
KBWS 130030Z 13009KT 06/M09 A3013 RMK A01 T00581086  RH  035%=      5-min Rain = 0
KBWS 130035Z 12009KT 06/M09 A3014 RMK A01 T00571089  RH  035%=      5-min Rain = 0
KBWS 130040Z 12009KT 06/M09 A3014 RMK A01 T00571089  RH  035%=      5-min Rain = 0
KBWS 130045Z 11008KT 06/M09 A3014 RMK A01 T00561090  RH  035%=      5-min Rain = 0
KBWS 130050Z 11008KT 05/M09 A3014 RMK A01 T00521091  RH  035%=      5-min Rain = 0
KBWS 130055Z 11009KT 06/M09 A3015 RMK A01 T00551091  RH  035%=      5-min Rain = 0
KBWS 130100Z 11008KT 05/M09 A3015 RMK A01 T00521091  RH  035%=      5-min Rain = 0
KBWS 130105Z 12009KT 05/M09 A3015 RMK A01 T00471090  RH  037%=      5-min Rain = 0
KBWS 130110Z 11009KT 05/M09 A3015 RMK A01 T00491092  RH  036%=      5-min Rain = 0
KBWS 130115Z 11009KT 05/M09 A3016 RMK A01 T00481093  RH  036%=      5-min Rain = 0
KBWS 130120Z 12009KT 05/M09 A3016 RMK A01 T00481092  RH  036%=      5-min Rain = 0
KBWS 130125Z 12009KT 05/M09 A3016 RMK A01 T00491093  RH  035%=      5-min Rain = 0
KBWS 130130Z 12009KT 05/M09 A3016 RMK A01 T00461092  RH  036%=      5-min Rain = 0
KBWS 130135Z 12009KT 05/M09 A3016 RMK A01 T00471093  RH  036%=      5-min Rain = 0
KBWS 130140Z 12009KT 04/M09 A3016 RMK A01 T00441093  RH  037%=      5-min Rain = 0
KBWS 130145Z 12010KT 05/M09 A3017 RMK A01 T00451092  RH  037%=      5-min Rain = 0
KBWS 130150Z 12009KT 05/M09 A3017 RMK A01 T00451092  RH  037%=      5-min Rain = 0
KBWS 130155Z 12009KT 04/M09 A3018 RMK A01 T00431091  RH  037%=      5-min Rain = 0
KBWS 130200Z 11009KT 04/M09 A3018 RMK A01 T00421093  RH  037%=      5-min Rain = 0
KBWS 130205Z 11008KT 04/M09 A3018 RMK A01 T00381093  RH  038%=      5-min Rain = 0
KBWS 130210Z 12008KT 04/M09 A3019 RMK A01 T00351092  RH  039%=      5-min Rain = 0
KBWS 130215Z 11008KT 03/M09 A3019 RMK A01 T00321093  RH  040%=      5-min Rain = 0
KBWS 130220Z 10009KT 03/M10 A302 RMK A01 T00331097  RH  038%=      5-min Rain = 0
KBWS 130225Z 11008KT 04/M10 A3021 RMK A01 T00371096  RH  038%=      5-min Rain = 0
KBWS 130230Z 11008KT 04/M09 A3021 RMK A01 T00361094  RH  039%=      5-min Rain = 0
KBWS 130235Z 10009KT 03/M10 A3021 RMK A01 T00321098  RH  039%=      5-min Rain = 0
KBWS 130240Z 11010KT 04/M10 A3022 RMK A01 T00381099  RH  037%=      5-min Rain = 0
KBWS 130245Z 10009KT 04/M10 A3022 RMK A01 T00401101  RH  035%=      5-min Rain = 0
KBWS 130250Z 11008KT 04/M10 A3022 RMK A01 T00401101  RH  035%=      5-min Rain = 0
KBWS 130255Z 10009KT 04/M10 A3023 RMK A01 T00381103  RH  035%=      5-min Rain = 0
KBWS 130300Z 10009KT 04/M11 A3023 RMK A01 T00361106  RH  035%=      5-min Rain = 0
KBWS 130305Z 09009KT 03/M11 A3024 RMK A01 T00331108  RH  035%=      5-min Rain = 0
KBWS 130310Z 08009KT 03/M11 A3024 RMK A01 T00311107  RH  036%=      5-min Rain = 0
KBWS 130315Z 08010KT 03/M11 A3025 RMK A01 T00281111  RH  036%=      5-min Rain = 0
KBWS 130320Z 08011KT 03/M11 A3026 RMK A01 T00271114  RH  035%=      5-min Rain = 0
KBWS 130325Z 08012KT 03/M11 A3027 RMK A01 T00261114  RH  035%=      5-min Rain = 0
KBWS 130330Z 07012KT 02/M11 A3027 RMK A01 T00241114  RH  036%=      5-min Rain = 0
KBWS 130335Z 07013G18KT 02/M11 A3028 RMK A01 T00231114  RH  036%=      5-min Rain = 0
KBWS 130340Z 08014KT 02/M12 A3028 RMK A01 T00221118  RH  035%=      5-min Rain = 0
KBWS 130345Z 08014KT 02/M12 A3029 RMK A01 T00221121  RH  034%=      5-min Rain = 0
KBWS 130350Z 08013G19KT 02/M12 A3029 RMK A01 T00211123  RH  034%=      5-min Rain = 0
KBWS 130355Z 07012KT 02/M12 A303 RMK A01 T00201118  RH  036%=      5-min Rain = 0
KBWS 130400Z 07014KT 02/M12 A303 RMK A01 T00191122  RH  035%=      5-min Rain = 0
KBWS 130405Z 07013G18KT 02/M12 A3031 RMK A01 T00181122  RH  035%=      5-min Rain = 0
KBWS 130410Z 08014KT 02/M13 A303 RMK A01 T00181125  RH  034%=      5-min Rain = 0
KBWS 130415Z 08013G19KT 02/M13 A3031 RMK A01 T00181125  RH  034%=      5-min Rain = 0
KBWS 130420Z 08014KT 02/M13 A3031 RMK A01 T00171129  RH  033%=      5-min Rain = 0
KBWS 130425Z 08014KT 02/M13 A3031 RMK A01 T00161128  RH  034%=      5-min Rain = 0
KBWS 130430Z 07012KT 02/M12 A3032 RMK A01 T00161122  RH  035%=      5-min Rain = 0
KBWS 130435Z 07013KT 02/M12 A3033 RMK A01 T00151122  RH  036%=      5-min Rain = 0
KBWS 130440Z 07014KT 01/M12 A3033 RMK A01 T00131124  RH  036%=      5-min Rain = 0
KBWS 130445Z 07014KT 01/M12 A3033 RMK A01 T00111124  RH  036%=      5-min Rain = 0
KBWS 130450Z 07015KT 01/M12 A3034 RMK A01 T00091124  RH  037%=      5-min Rain = 0
KBWS 130455Z 07013KT 01/M12 A3034 RMK A01 T00081124  RH  037%=      5-min Rain = 0
KBWS 130500Z 07015KT 01/M12 A3034 RMK A01 T00081124  RH  037%=      5-min Rain = 0
KBWS 130505Z 07012KT 01/M13 A3035 RMK A01 T00071126  RH  037%=      5-min Rain = 0
KBWS 130510Z 07015KT 01/M12 A3035 RMK A01 T00071123  RH  038%=      5-min Rain = 0
KBWS 130515Z 07015KT 01/M12 A3035 RMK A01 T00061124  RH  038%=      5-min Rain = 0
KBWS 130520Z 08013G18KT 00/M13 A3036 RMK A01 T00041127  RH  037%=      5-min Rain = 0
KBWS 130525Z 07013KT 00/M12 A3037 RMK A01 T00041122  RH  039%=      5-min Rain = 0
KBWS 130530Z 07014G19KT 00/M12 A3037 RMK A01 T00041120  RH  040%=      5-min Rain = 0
KBWS 130535Z 07015KT 00/M12 A3037 RMK A01 T00021121  RH  040%=      5-min Rain = 0
KBWS 130540Z 07014KT 00/13 A3037 RMK A01 T00000-126  RH  039%=      5-min Rain = 0
KBWS 130545Z 07015KT 00/12 A3038 RMK A01 T00-00-123  RH  040%=      5-min Rain = 0
KBWS 130550Z 07013G18KT M00/M12 A3038 RMK A01 T10011124  RH  040%=      5-min Rain = 0
KBWS 130555Z 07013KT M00/M13 A3038 RMK A01 T10021125  RH  039%=      5-min Rain = 0

Page generated in 0.0151 seconds.